Pagrindinis puslapis
METAR-TAF:

METAR-TAF

Oro uostai :

Al-`Ula, Saudo Arabija

platuma: 26-29-00N, ilguma: 038-07-01E, Aukštis: 624 m

Dabartinis oras

Ataskaita buvo paskelbta 1 valandą ir 0 minutes, ne 08:00 UTC
Vėjas 10 kt iš Šiaurės/Šiaurės Rytų
Temperatūra 11°C
Drėgmė 35%
Slėgis 1028 hPa
Matomumas 10 km arba daugiau
nėra debesų žemiau 1500 m ir nėra kamuolinių lietaus debesų

METAR: OEAO 250800Z 02010KT CAVOK 11/M04 Q1028

Laikas: 12:00 (09:00 UTC)

Prognozė

Ataskaita buvo paskelbta 10 valandos ir 0 minutes, ne 23:00 UTC
Prognozė galioja nuo 25 metu 00 UTC su 26 metu 06 UTC
Vėjas 12 kt iš Šiaurės
Matomumas: 7000 m
Mažai debesys ne aukštis 4000 ft
Laikinai
nuo 25 metu 00 UTC su 25 metu 12 UTC
Matomumas: 3000 m
Dulkes pustymas

TAF: OEAO 242300Z 2500/2606 36012KT 7000 FEW040 TEMPO 2500/2512 3000 BLDU

Orai ataskaitas ir orų prognozės (METAR, TAF).

turimą stotys yra geltonos ir raudonos taškus žemėlapyje.

Perkelti pele per norėdami pamatyti stoties vardą.

Tada spustelėkite, norėdami matyti oro stebėjimo ir prognozės.

Norėdami pakeisti žemėlapį: spustelėkite ant žalios mygtukų su juodo kryžiaus žemyn,; žalią mygtuką su brūkšneliu, jei norite nutolinti; arba žalių rodyklių gretimoms žemėlapius.


METAR-TAF: